Time;durP1;ratioP1;P1;durP2;ratioP2;P2;SDS_P1;SDS_P2;PMS_P1;PMS_P2;Temp;Humidity;BMP_temperature;BMP_pressure;BME280_temperature;BME280_humidity;BME280_pressure;Samples;Min_cycle;Max_cycle;Signal;HPM_P1;HPM_P2
2021/12/19 00:04:53;;;;;;;40.33;21.77;;;6.70;99.90;;;;;;5026659;28;20174;-91
2021/12/19 00:10:05;;;;;;;49.57;28.93;;;6.90;99.90;;;;;;5038227;28;20185;-88
2021/12/19 00:12:31;;;;;;;40.60;21.60;;;6.90;99.90;;;;;;5036913;28;20218;-87
2021/12/19 00:14:56;;;;;;;37.70;20.50;;;7.00;99.90;;;;;;5035614;28;20246;-89
2021/12/19 00:17:22;;;;;;;37.43;20.77;;;7.00;99.90;;;;;;5018474;28;20194;-87
2021/12/19 00:19:48;;;;;;;37.77;21.73;;;6.90;99.90;;;;;;5036815;28;20201;-88
2021/12/19 00:22:14;;;;;;;36.77;20.30;;;6.80;99.90;;;;;;5020363;28;20181;-83
2021/12/19 00:24:43;;;;;;;38.43;20.67;;;6.80;99.90;;;;;;5035401;28;20194;-90
2021/12/19 00:27:08;;;;;;;36.87;20.37;;;6.80;99.90;;;;;;5029543;28;20166;-87
2021/12/19 00:29:35;;;;;;;37.33;20.40;;;6.80;99.90;;;;;;5030670;28;20181;-87
2021/12/19 00:32:02;;;;;;;37.57;20.30;;;6.80;99.90;;;;;;5035285;28;20217;-92
2021/12/19 00:34:29;;;;;;;37.83;21.33;;;6.80;99.90;;;;;;5035538;28;20201;-85
2021/12/19 00:36:54;;;;;;;37.50;19.43;;;6.90;99.90;;;;;;5037357;28;20234;-85
2021/12/19 00:39:23;;;;;;;38.17;20.20;;;6.90;99.90;;;;;;5037451;28;20229;-86
2021/12/19 00:41:55;;;;;;;34.70;19.50;;;6.90;99.90;;;;;;5038353;28;20185;-88
2021/12/19 00:44:24;;;;;;;35.67;18.87;;;6.90;99.90;;;;;;5037770;28;20193;-88
2021/12/19 00:46:54;;;;;;;34.13;19.07;;;6.80;99.90;;;;;;5036750;28;20213;-89
2021/12/19 00:49:22;;;;;;;39.03;20.17;;;6.80;99.90;;;;;;5019874;28;20169;-83
2021/12/19 00:51:49;;;;;;;36.03;19.83;;;6.90;99.90;;;;;;5037486;28;20221;-86
2021/12/19 00:54:15;;;;;;;34.33;19.93;;;6.80;99.90;;;;;;5035930;28;20194;-88
2021/12/19 00:56:43;;;;;;;41.43;21.53;;;6.80;99.90;;;;;;5029772;28;20169;-84
2021/12/19 00:59:10;;;;;;;36.60;20.17;;;6.80;99.90;;;;;;5034563;28;20174;-84
2021/12/19 01:01:37;;;;;;;37.53;19.97;;;6.90;99.90;;;;;;5026122;28;20182;-86
2021/12/19 01:04:20;;;;;;;37.77;20.77;;;6.90;99.90;;;;;;5020616;28;20238;-84
2021/12/19 01:06:49;;;;;;;37.40;20.40;;;6.90;99.90;;;;;;5018973;28;20193;-89
2021/12/19 01:09:17;;;;;;;35.33;19.27;;;6.90;99.90;;;;;;5019579;28;20178;-89
2021/12/19 01:11:49;;;;;;;38.47;20.17;;;6.80;99.90;;;;;;5016494;28;20201;-90
2021/12/19 01:14:15;;;;;;;40.90;20.57;;;6.90;99.90;;;;;;5021032;28;20257;-88
2021/12/19 01:16:41;;;;;;;36.83;19.77;;;6.80;99.90;;;;;;5020673;28;20220;-89
2021/12/19 01:19:07;;;;;;;39.03;20.57;;;6.80;99.90;;;;;;5021728;28;20630;-90
2021/12/19 01:21:33;;;;;;;33.83;19.40;;;6.90;99.90;;;;;;5034325;28;20166;-87
2021/12/19 01:23:59;;;;;;;35.93;20.27;;;6.90;99.90;;;;;;5035828;28;20170;-83
2021/12/19 01:26:25;;;;;;;36.40;19.57;;;6.90;99.90;;;;;;5036460;28;20173;-83
2021/12/19 01:28:51;;;;;;;38.07;20.63;;;7.00;99.90;;;;;;5032690;28;20246;-88
2021/12/19 01:31:18;;;;;;;33.57;17.37;;;7.00;99.90;;;;;;5028960;28;20190;-87
2021/12/19 01:33:44;;;;;;;31.33;18.00;;;7.00;99.90;;;;;;5025083;28;20182;-89
2021/12/19 01:36:12;;;;;;;30.87;17.53;;;7.00;99.90;;;;;;5021887;28;20179;-90
2021/12/19 01:38:40;;;;;;;31.63;17.13;;;7.00;99.90;;;;;;5026787;28;20234;-87
2021/12/19 01:41:06;;;;;;;29.90;17.10;;;6.90;99.90;;;;;;5028887;28;20181;-88
2021/12/19 01:43:35;;;;;;;33.07;18.37;;;6.90;99.90;;;;;;5014096;28;20174;-91
2021/12/19 01:46:02;;;;;;;30.43;18.57;;;7.00;99.90;;;;;;5017008;28;20186;-90
2021/12/19 01:48:30;;;;;;;32.20;17.83;;;7.00;99.90;;;;;;5016302;28;20182;-83
2021/12/19 01:50:56;;;;;;;31.40;18.10;;;6.90;99.90;;;;;;5021482;28;20353;-87
2021/12/19 01:53:23;;;;;;;33.57;17.30;;;7.00;99.90;;;;;;5021268;28;20660;-86
2021/12/19 01:55:49;;;;;;;31.23;16.70;;;7.00;99.90;;;;;;5021730;28;20166;-89
2021/12/19 01:58:16;;;;;;;27.03;15.57;;;7.00;99.90;;;;;;5037272;28;20146;-83
2021/12/19 02:01:01;;;;;;;25.87;15.50;;;7.00;99.90;;;;;;5037010;28;20147;-84
2021/12/19 02:03:27;;;;;;;24.37;15.13;;;7.20;99.90;;;;;;5034303;28;20182;-87
2021/12/19 02:05:53;;;;;;;21.97;13.37;;;7.00;99.90;;;;;;5014007;28;20229;-90
2021/12/19 02:08:18;;;;;;;23.43;13.43;;;6.90;99.90;;;;;;5020991;28;20171;-90
2021/12/19 02:10:45;;;;;;;22.17;14.17;;;6.90;99.90;;;;;;5019984;28;20174;-90
2021/12/19 02:13:14;;;;;;;25.40;14.63;;;6.90;99.90;;;;;;5018086;28;20185;-90
2021/12/19 02:15:41;;;;;;;25.43;14.77;;;7.00;99.90;;;;;;5019505;28;20174;-89
2021/12/19 02:18:17;;;;;;;27.73;15.60;;;6.90;99.90;;;;;;5021018;28;20205;-89
2021/12/19 02:20:50;;;;;;;24.07;14.53;;;6.90;99.90;;;;;;5033213;28;20170;-87
2021/12/19 02:23:18;;;;;;;22.80;14.00;;;6.90;99.90;;;;;;5019652;28;20179;-85
2021/12/19 02:25:45;;;;;;;25.23;14.37;;;6.90;99.90;;;;;;5033471;28;20225;-87
2021/12/19 02:28:10;;;;;;;26.30;15.07;;;6.60;99.90;;;;;;5031779;28;20167;-86
2021/12/19 02:30:37;;;;;;;25.93;14.93;;;6.90;99.90;;;;;;5009902;28;20187;-89
2021/12/19 02:33:10;;;;;;;26.30;15.43;;;7.00;99.90;;;;;;5027717;28;20257;-88
2021/12/19 02:35:36;;;;;;;24.40;14.23;;;7.10;99.90;;;;;;5024081;28;20170;-88
2021/12/19 02:48:36;;;;;;;22.30;13.47;;;7.10;99.90;;;;;;5025901;28;20185;-89
2021/12/19 02:51:03;;;;;;;24.10;14.07;;;7.10;99.90;;;;;;5019298;28;20281;-88
2021/12/19 02:53:40;;;;;;;23.93;14.67;;;7.30;99.90;;;;;;5019904;28;20181;-89
2021/12/19 02:56:11;;;;;;;22.83;14.27;;;7.30;99.90;;;;;;5019682;28;20163;-92
2021/12/19 02:58:39;;;;;;;26.70;15.13;;;7.40;99.90;;;;;;5019014;28;20170;-87
2021/12/19 03:01:09;;;;;;;25.70;15.83;;;7.40;99.90;;;;;;5019064;28;20257;-89
2021/12/19 03:03:34;;;;;;;26.87;15.13;;;7.30;99.90;;;;;;5019794;28;20205;-89
2021/12/19 03:06:00;;;;;;;26.03;15.67;;;7.20;99.90;;;;;;5019079;28;20174;-89
2021/12/19 03:08:26;;;;;;;25.83;14.80;;;7.30;99.90;;;;;;5020048;28;20175;-90
2021/12/19 03:17:56;;;;;;;26.30;15.83;;;7.50;99.90;;;;;;5019851;28;20220;-90
2021/12/19 03:19:06;;;;;;;26.73;15.67;;;7.60;99.90;;;;;;5019416;28;20220;-90
2021/12/19 03:21:32;;;;;;;23.37;14.37;;;7.30;99.90;;;;;;5018108;28;20179;-91
2021/12/19 03:23:57;;;;;;;23.30;14.37;;;7.40;99.90;;;;;;5019094;28;20189;-91
2021/12/19 03:26:23;;;;;;;23.63;14.13;;;7.50;99.90;;;;;;5018963;28;20178;-91
2021/12/19 03:28:49;;;;;;;24.30;15.13;;;7.70;99.90;;;;;;5003091;28;20548;-90
2021/12/19 03:31:15;;;;;;;23.87;14.70;;;7.80;99.90;;;;;;5017250;28;20233;-90
2021/12/19 03:33:40;;;;;;;23.33;14.17;;;7.90;99.90;;;;;;5001155;28;20170;-89
2021/12/19 03:36:06;;;;;;;28.57;16.53;;;7.70;99.90;;;;;;5017107;28;20178;-90
2021/12/19 03:38:38;;;;;;;28.07;16.83;;;7.80;99.90;;;;;;5017592;28;20631;-86
2021/12/19 03:41:14;;;;;;;31.30;17.63;;;7.70;99.90;;;;;;5017022;28;20175;-91
2021/12/19 03:43:40;;;;;;;29.83;16.80;;;7.60;99.90;;;;;;5016879;28;20180;-91
2021/12/19 03:46:06;;;;;;;30.60;17.77;;;7.50;99.90;;;;;;5016594;28;20186;-90
2021/12/19 03:48:32;;;;;;;31.33;18.37;;;7.40;99.90;;;;;;5017299;28;20635;-90
2021/12/19 03:50:58;;;;;;;29.23;17.30;;;7.20;99.90;;;;;;5016529;28;20209;-88
2021/12/19 03:53:29;;;;;;;33.33;17.83;;;7.10;99.90;;;;;;5015632;28;20190;-92
2021/12/19 03:55:54;;;;;;;33.30;19.27;;;7.00;99.90;;;;;;4999434;28;20182;-91
2021/12/19 03:58:21;;;;;;;33.40;19.00;;;7.00;99.90;;;;;;5017340;28;20225;-92
2021/12/19 04:00:49;;;;;;;31.93;18.30;;;7.00;99.90;;;;;;5017705;28;20166;-91
2021/12/19 04:03:19;;;;;;;32.80;18.70;;;7.00;99.90;;;;;;5015436;28;20178;-91
2021/12/19 04:05:47;;;;;;;34.43;18.53;;;7.20;99.90;;;;;;5015813;28;20275;-89
2021/12/19 04:08:12;;;;;;;31.10;17.97;;;7.30;99.90;;;;;;5015646;28;20690;-93
2021/12/19 04:10:38;;;;;;;35.40;19.80;;;7.20;99.90;;;;;;5015822;28;20206;-88
2021/12/19 04:13:07;;;;;;;33.57;18.37;;;7.30;99.90;;;;;;5014758;28;20178;-88
2021/12/19 04:15:34;;;;;;;35.53;19.20;;;7.10;99.90;;;;;;5015707;28;20613;-84
2021/12/19 04:18:00;;;;;;;41.03;19.37;;;7.00;99.90;;;;;;5015515;28;20277;-88
2021/12/19 04:20:25;;;;;;;34.27;18.80;;;7.00;99.90;;;;;;5015949;28;20226;-89
2021/12/19 04:22:52;;;;;;;37.83;19.43;;;7.10;99.90;;;;;;5015097;28;20182;-91
2021/12/19 04:25:19;;;;;;;37.50;19.10;;;7.10;99.90;;;;;;5015043;28;20178;-86
2021/12/19 04:27:45;;;;;;;33.43;16.97;;;7.20;99.90;;;;;;4999217;28;20198;-90
2021/12/19 04:30:16;;;;;;;30.27;14.60;;;7.40;99.90;;;;;;5015497;28;20544;-91
2021/12/19 04:32:46;;;;;;;33.47;15.03;;;7.30;99.90;;;;;;4998858;28;20271;-91
2021/12/19 04:35:15;;;;;;;34.70;16.73;;;7.40;99.90;;;;;;5015104;28;20175;-85
2021/12/19 04:53:45;;;;;;;25.60;13.03;;;7.40;99.90;;;;;;5015447;28;20221;-89
2021/12/19 04:56:27;;;;;;;24.00;12.80;;;7.40;99.90;;;;;;5016673;28;20170;-91
2021/12/19 04:59:12;;;;;;;25.77;13.50;;;7.50;99.90;;;;;;5015258;28;20204;-88
2021/12/19 05:02:05;;;;;;;24.90;13.70;;;7.40;99.90;;;;;;5001687;28;20170;-90
2021/12/19 05:05:15;;;;;;;26.43;12.23;;;7.40;99.90;;;;;;5015914;28;20244;-90
2021/12/19 05:15:38;;;;;;;22.47;12.30;;;7.40;99.90;;;;;;5016242;28;20229;-86
2021/12/19 05:18:08;;;;;;;23.03;11.03;;;7.40;99.90;;;;;;5016030;28;20186;-84
2021/12/19 05:20:35;;;;;;;21.93;11.80;;;7.30;99.90;;;;;;5018044;28;20178;-88
2021/12/19 05:23:17;;;;;;;28.07;12.73;;;7.40;99.90;;;;;;5014446;28;20178;-89
2021/12/19 05:26:03;;;;;;;25.17;11.90;;;7.50;99.90;;;;;;5033132;28;20166;-85
2021/12/19 05:28:52;;;;;;;21.03;11.57;;;7.40;99.90;;;;;;5034048;28;20171;-90
2021/12/19 05:31:22;;;;;;;20.90;10.57;;;7.30;99.90;;;;;;5025499;28;20229;-89
2021/12/19 05:33:48;;;;;;;18.90;10.47;;;7.20;99.90;;;;;;5022589;28;20167;-90
2021/12/19 05:47:06;;;;;;;20.90;11.90;;;7.20;99.90;;;;;;5038247;28;20209;-81
2021/12/19 05:49:32;;;;;;;23.63;12.13;;;7.00;99.90;;;;;;5038001;28;20166;-81
2021/12/19 05:51:58;;;;;;;24.93;12.40;;;7.30;99.90;;;;;;5036834;28;20589;-83
2021/12/19 05:54:25;;;;;;;23.43;11.77;;;7.30;99.90;;;;;;5032180;28;20201;-88
2021/12/19 05:56:54;;;;;;;25.83;13.73;;;7.30;99.90;;;;;;5030770;28;20181;-84
2021/12/19 05:59:22;;;;;;;24.73;12.63;;;7.50;99.90;;;;;;5034423;28;20162;-89
2021/12/19 06:01:50;;;;;;;22.50;11.37;;;7.30;99.90;;;;;;5022894;28;20262;-87
2021/12/19 06:04:26;;;;;;;26.77;12.83;;;7.20;99.90;;;;;;5020203;28;20261;-84
2021/12/19 06:06:53;;;;;;;26.53;13.53;;;7.00;99.90;;;;;;5028142;28;20177;-85
2021/12/19 06:09:22;;;;;;;23.90;12.10;;;7.00;99.90;;;;;;5032216;28;20236;-83
2021/12/19 06:12:00;;;;;;;25.50;12.70;;;7.10;99.90;;;;;;5034217;28;20290;-89
2021/12/19 06:14:32;;;;;;;32.10;15.23;;;7.10;99.90;;;;;;5018300;28;20277;-89
2021/12/19 06:17:00;;;;;;;31.13;15.53;;;7.20;99.90;;;;;;5015307;28;20197;-86
2021/12/19 06:19:36;;;;;;;30.67;13.80;;;7.30;99.90;;;;;;5030655;28;20712;-85
2021/12/19 06:22:11;;;;;;;35.93;15.63;;;7.10;99.90;;;;;;5029180;28;20170;-89
2021/12/19 06:24:40;;;;;;;33.97;15.57;;;7.20;99.90;;;;;;5030975;28;20186;-83
2021/12/19 06:27:06;;;;;;;29.23;14.37;;;7.10;99.90;;;;;;5031176;28;20185;-84
2021/12/19 06:29:32;;;;;;;31.00;15.47;;;7.10;99.90;;;;;;5035331;28;20186;-83
2021/12/19 06:31:58;;;;;;;33.00;16.10;;;6.90;99.90;;;;;;5036485;28;20221;-86
2021/12/19 06:34:25;;;;;;;36.33;17.00;;;7.00;99.90;;;;;;5036130;28;20186;-86
2021/12/19 06:36:54;;;;;;;43.20;18.90;;;7.00;99.90;;;;;;5039370;28;20162;-85
2021/12/19 06:39:22;;;;;;;44.00;18.17;;;7.00;99.90;;;;;;5041027;28;20155;-86
2021/12/19 06:41:51;;;;;;;41.50;18.30;;;7.20;99.90;;;;;;5039446;28;20220;-84
2021/12/19 06:44:22;;;;;;;36.57;17.50;;;7.00;99.90;;;;;;5025824;28;20182;-90
2021/12/19 06:46:50;;;;;;;38.47;16.20;;;7.00;99.90;;;;;;5018903;28;20245;-90
2021/12/19 06:49:20;;;;;;;41.13;18.10;;;6.90;99.90;;;;;;5019540;28;20640;-90
2021/12/19 06:52:41;;;;;;;40.53;19.93;;;6.90;99.90;;;;;;5019340;28;20209;-90
2021/12/19 06:55:08;;;;;;;39.70;18.13;;;7.00;99.90;;;;;;5017916;28;20190;-86
2021/12/19 06:57:37;;;;;;;45.93;19.60;;;6.90;99.90;;;;;;5018009;28;20257;-89
2021/12/19 07:00:11;;;;;;;42.60;20.03;;;7.10;99.90;;;;;;5017750;28;20185;-91
2021/12/19 07:02:37;;;;;;;44.13;18.77;;;7.20;99.90;;;;;;5018318;28;20215;-91
2021/12/19 07:05:03;;;;;;;48.73;19.23;;;7.20;99.90;;;;;;5016677;28;20179;-89
2021/12/19 07:07:29;;;;;;;47.47;20.20;;;7.20;99.90;;;;;;5018836;28;20186;-91
2021/12/19 07:09:57;;;;;;;51.77;20.77;;;7.20;99.90;;;;;;5014268;28;20198;-90
2021/12/19 07:12:26;;;;;;;45.00;19.17;;;7.20;99.90;;;;;;5031276;28;20225;-85
2021/12/19 07:14:56;;;;;;;53.83;21.03;;;7.30;99.90;;;;;;5031485;28;20201;-84
2021/12/19 07:17:26;;;;;;;45.57;18.93;;;7.30;99.90;;;;;;5038621;28;20182;-85
2021/12/19 07:19:52;;;;;;;41.60;16.50;;;7.30;99.90;;;;;;5039642;28;20186;-87
2021/12/19 07:22:19;;;;;;;45.20;17.87;;;7.30;99.90;;;;;;5038225;28;20182;-89
2021/12/19 07:24:45;;;;;;;42.10;18.40;;;7.40;99.90;;;;;;5019977;28;20178;-85
2021/12/19 07:27:12;;;;;;;42.43;15.90;;;7.40;99.90;;;;;;5020749;28;20320;-85
2021/12/19 07:29:38;;;;;;;39.63;16.70;;;7.30;99.90;;;;;;5030256;28;20174;-87
2021/12/19 07:32:04;;;;;;;46.63;18.40;;;7.00;99.90;;;;;;5030874;28;20206;-89
2021/12/19 07:34:33;;;;;;;53.57;19.83;;;7.00;99.90;;;;;;5025251;28;20182;-88
2021/12/19 07:37:01;;;;;;;44.23;18.43;;;7.00;99.90;;;;;;5018138;28;20197;-85
2021/12/19 07:41:53;;;;;;;44.50;18.00;;;7.00;99.90;;;;;;5018249;28;20261;-88
2021/12/19 07:44:19;;;;;;;51.53;19.17;;;7.20;99.90;;;;;;5017580;28;20202;-91
2021/12/19 07:46:45;;;;;;;52.67;19.27;;;7.30;99.90;;;;;;5016300;28;20178;-85
2021/12/19 07:49:11;;;;;;;59.27;18.70;;;7.20;99.90;;;;;;5017447;28;20178;-85
2021/12/19 07:51:37;;;;;;;65.50;19.67;;;7.10;99.90;;;;;;5016342;28;20202;-88
2021/12/19 07:54:03;;;;;;;63.27;19.43;;;7.30;99.90;;;;;;5001038;28;20198;-89
2021/12/19 07:56:29;;;;;;;72.90;20.50;;;7.40;99.90;;;;;;5017770;28;20178;-89
2021/12/19 07:58:54;;;;;;;47.47;17.60;;;7.40;99.90;;;;;;5018284;28;20177;-88
2021/12/19 08:01:21;;;;;;;67.00;19.10;;;7.10;99.90;;;;;;5002989;28;20270;-89
2021/12/19 08:03:48;;;;;;;58.40;18.63;;;7.00;99.90;;;;;;5024742;28;20174;-87
2021/12/19 08:06:13;;;;;;;65.30;18.67;;;7.00;99.90;;;;;;5022886;28;20196;-89
2021/12/19 08:08:46;;;;;;;82.93;20.03;;;6.90;99.90;;;;;;5028810;28;20169;-88
2021/12/19 08:13:56;;;;;;;75.70;20.00;;;6.90;99.90;;;;;;5022626;28;20189;-87
2021/12/19 08:16:21;;;;;;;82.27;20.97;;;7.00;99.90;;;;;;5002108;28;20194;-91
2021/12/19 08:18:47;;;;;;;62.53;21.53;;;7.10;99.90;;;;;;5018656;28;20224;-88
2021/12/19 08:21:16;;;;;;;61.60;20.50;;;7.00;99.90;;;;;;5018749;28;20174;-91
2021/12/19 08:23:42;;;;;;;54.33;17.97;;;7.00;99.90;;;;;;5017200;28;20162;-90
2021/12/19 08:26:10;;;;;;;63.47;17.57;;;7.00;99.90;;;;;;5000305;28;20274;-88
2021/12/19 08:28:37;;;;;;;44.43;16.83;;;6.90;99.90;;;;;;5015663;28;20170;-90
2021/12/19 08:31:03;;;;;;;60.00;20.07;;;6.90;99.90;;;;;;5016097;28;20167;-91
2021/12/19 08:33:29;;;;;;;63.50;19.23;;;6.90;99.90;;;;;;5017451;28;20178;-91
2021/12/19 08:35:55;;;;;;;64.30;20.07;;;7.10;99.90;;;;;;5022036;28;20190;-89
2021/12/19 08:38:22;;;;;;;56.93;19.23;;;7.00;99.90;;;;;;5003409;28;20225;-89
2021/12/19 08:40:51;;;;;;;33.67;12.03;;;7.00;99.90;;;;;;5001770;28;20185;-90
2021/12/19 08:43:18;;;;;;;36.77;13.43;;;6.90;99.90;;;;;;5018012;28;20185;-90
2021/12/19 08:45:45;;;;;;;41.00;14.27;;;6.80;99.90;;;;;;5018180;28;20205;-90
2021/12/19 08:48:12;;;;;;;38.43;12.80;;;6.70;99.90;;;;;;5020185;28;20696;-91
2021/12/19 08:50:37;;;;;;;39.47;12.60;;;6.80;99.90;;;;;;5019066;28;20178;-85
2021/12/19 08:53:03;;;;;;;35.87;13.40;;;7.00;99.90;;;;;;5019709;28;20264;-90
2021/12/19 08:55:30;;;;;;;35.60;12.37;;;6.80;99.90;;;;;;5018352;28;20190;-84
2021/12/19 08:57:56;;;;;;;33.10;12.60;;;6.80;99.90;;;;;;5037604;28;20166;-88
2021/12/19 09:00:22;;;;;;;32.27;11.33;;;6.80;99.90;;;;;;5037104;28;20253;-85
2021/12/19 09:02:53;;;;;;;22.73;10.50;;;6.80;99.90;;;;;;5037410;28;20181;-88
2021/12/19 09:05:20;;;;;;;20.80;9.33;;;6.70;99.90;;;;;;5021528;28;20166;-89
2021/12/19 09:07:50;;;;;;;20.07;7.53;;;6.70;99.90;;;;;;5037367;28;20193;-89
2021/12/19 09:10:16;;;;;;;21.60;8.83;;;6.60;99.90;;;;;;5037387;28;20166;-86
2021/12/19 09:12:41;;;;;;;22.40;9.63;;;6.60;99.90;;;;;;5037404;28;20267;-90
2021/12/19 09:15:08;;;;;;;21.20;8.67;;;6.70;99.90;;;;;;5036893;28;20178;-85
2021/12/19 09:17:35;;;;;;;22.20;8.73;;;6.50;99.90;;;;;;5036833;28;20206;-84
2021/12/19 09:20:05;;;;;;;20.23;8.57;;;6.80;99.90;;;;;;5020853;28;20166;-88
2021/12/19 09:22:31;;;;;;;18.77;8.50;;;6.80;99.90;;;;;;5036515;28;20178;-85
2021/12/19 09:24:56;;;;;;;20.10;8.97;;;6.80;99.90;;;;;;5037158;28;20269;-86
2021/12/19 09:27:24;;;;;;;17.23;8.23;;;6.90;99.90;;;;;;5037264;28;20170;-84
2021/12/19 09:29:49;;;;;;;14.50;6.53;;;6.90;99.90;;;;;;5036833;28;20182;-86
2021/12/19 09:32:15;;;;;;;14.23;7.30;;;6.90;99.90;;;;;;5037083;28;20236;-88
2021/12/19 09:34:42;;;;;;;15.23;8.03;;;7.00;99.90;;;;;;5033221;28;20202;-84
2021/12/19 09:37:08;;;;;;;18.23;8.63;;;6.90;99.90;;;;;;5021040;28;20178;-84
2021/12/19 09:39:34;;;;;;;18.23;8.30;;;7.00;99.90;;;;;;5019674;28;20177;-86
2021/12/19 09:42:09;;;;;;;13.70;7.50;;;7.00;99.90;;;;;;5026484;28;20177;-87
2021/12/19 09:44:36;;;;;;;12.33;7.30;;;7.10;99.90;;;;;;5028350;28;20186;-86
2021/12/19 09:47:07;;;;;;;15.60;7.80;;;7.10;99.90;;;;;;5021572;28;20178;-84
2021/12/19 09:49:36;;;;;;;14.10;6.50;;;7.10;99.90;;;;;;5022383;28;20258;-86
2021/12/19 09:52:09;;;;;;;11.67;6.57;;;7.10;99.90;;;;;;5023756;28;20281;-91
2021/12/19 09:54:54;;;;;;;9.77;6.43;;;7.00;99.90;;;;;;5024569;28;20214;-90
2021/12/19 09:57:29;;;;;;;11.83;6.63;;;7.00;99.90;;;;;;5007057;28;20213;-91
2021/12/19 10:00:00;;;;;;;11.67;6.57;;;7.00;99.90;;;;;;5020785;28;20265;-91
2021/12/19 10:02:44;;;;;;;11.53;6.37;;;7.20;99.90;;;;;;5021228;28;20174;-91
2021/12/19 10:05:25;;;;;;;9.70;5.10;;;7.10;99.90;;;;;;5025636;28;20190;-90
2021/12/19 10:07:54;;;;;;;8.07;4.97;;;7.30;99.90;;;;;;5027406;28;20275;-90
2021/12/19 10:10:54;;;;;;;8.23;4.20;;;7.30;99.90;;;;;;5022273;28;20159;-92
2021/12/19 10:13:34;;;;;;;7.73;5.00;;;7.30;99.90;;;;;;5022691;28;20185;-92
2021/12/19 10:16:00;;;;;;;8.33;4.90;;;7.20;99.90;;;;;;5011317;28;20646;-88
2021/12/19 10:18:26;;;;;;;6.73;4.50;;;7.30;99.90;;;;;;5031783;28;20257;-91
2021/12/19 10:20:58;;;;;;;9.13;5.23;;;7.30;99.90;;;;;;5026802;28;20258;-93
2021/12/19 10:23:30;;;;;;;8.60;5.17;;;7.30;99.90;;;;;;5017870;28;20182;-88
2021/12/19 10:26:10;;;;;;;7.87;4.97;;;7.30;99.90;;;;;;5021880;28;20167;-88
2021/12/19 10:28:51;;;;;;;10.20;5.80;;;7.30;99.90;;;;;;5021135;28;20539;-87
2021/12/19 10:31:17;;;;;;;10.77;5.73;;;7.40;99.90;;;;;;5039181;28;20201;-85
2021/12/19 10:33:49;;;;;;;9.50;5.47;;;7.20;99.90;;;;;;5040000;28;20186;-83
2021/12/19 10:36:17;;;;;;;8.77;4.53;;;7.30;99.90;;;;;;5039964;28;20163;-85
2021/12/19 10:38:48;;;;;;;7.67;4.90;;;7.30;99.90;;;;;;5039492;28;20189;-83
2021/12/19 10:41:22;;;;;;;8.13;4.83;;;7.30;99.90;;;;;;5023082;28;20178;-85
2021/12/19 10:44:01;;;;;;;7.93;4.63;;;7.30;99.90;;;;;;5039523;28;20164;-86
2021/12/19 10:46:37;;;;;;;5.53;3.27;;;7.30;99.90;;;;;;5038635;28;20230;-84
2021/12/19 10:49:24;;;;;;;6.83;3.93;;;7.20;99.90;;;;;;5023062;28;20173;-91
2021/12/19 10:52:12;;;;;;;7.83;3.80;;;7.20;99.90;;;;;;5020585;28;20210;-91
2021/12/19 10:54:59;;;;;;;6.57;3.63;;;7.20;99.90;;;;;;5018590;28;20377;-90
2021/12/19 10:57:37;;;;;;;7.10;4.27;;;7.30;99.90;;;;;;5019373;28;20185;-90
2021/12/19 11:00:09;;;;;;;7.23;4.43;;;7.30;99.90;;;;;;5019040;28;20242;-91
2021/12/19 11:02:41;;;;;;;7.90;5.03;;;7.30;99.90;;;;;;5019125;28;20580;-91
2021/12/19 11:05:33;;;;;;;8.13;3.97;;;7.40;99.90;;;;;;5018490;28;20228;-92
2021/12/19 11:08:04;;;;;;;6.30;3.90;;;7.40;99.90;;;;;;5021651;28;20175;-92
2021/12/19 11:10:31;;;;;;;9.33;4.97;;;7.40;99.90;;;;;;5023548;28;20159;-88
2021/12/19 11:13:12;;;;;;;8.63;5.13;;;7.60;99.90;;;;;;5020281;28;20210;-84
2021/12/19 11:15:38;;;;;;;8.57;4.63;;;7.70;99.90;;;;;;5033745;28;20186;-82
2021/12/19 11:18:05;;;;;;;10.67;5.50;;;7.70;99.90;;;;;;5035617;28;20193;-86
2021/12/19 11:20:31;;;;;;;9.37;5.20;;;7.80;99.90;;;;;;5033741;28;20237;-82
2021/12/19 11:22:57;;;;;;;9.23;5.27;;;7.80;99.90;;;;;;5036590;28;20205;-86
2021/12/19 11:25:25;;;;;;;7.33;5.10;;;8.00;99.90;;;;;;5033488;28;20174;-86
2021/12/19 11:27:53;;;;;;;8.17;4.97;;;8.00;99.90;;;;;;5032096;28;20210;-90
2021/12/19 11:30:19;;;;;;;7.83;4.70;;;8.10;99.90;;;;;;5034827;28;20182;-84
2021/12/19 11:33:21;;;;;;;8.70;4.67;;;8.30;99.90;;;;;;5033361;28;20210;-87
2021/12/19 11:35:53;;;;;;;8.47;4.57;;;8.20;99.90;;;;;;5033681;28;20181;-86
2021/12/19 11:38:55;;;;;;;8.60;4.57;;;8.30;99.90;;;;;;5033065;28;20159;-86
2021/12/19 11:41:24;;;;;;;8.17;4.77;;;8.40;99.90;;;;;;5032132;28;20248;-85
2021/12/19 11:43:55;;;;;;;11.67;7.43;;;8.60;99.90;;;;;;5031182;28;20286;-88
2021/12/19 11:46:53;;;;;;;8.27;5.20;;;8.60;99.90;;;;;;5019322;28;20202;-90
2021/12/19 11:49:25;;;;;;;7.23;4.90;;;8.60;99.90;;;;;;5019661;28;20170;-90
2021/12/19 11:52:22;;;;;;;8.20;5.00;;;8.40;99.90;;;;;;5021474;28;20198;-93
2021/12/19 11:55:13;;;;;;;9.67;5.53;;;8.10;99.90;;;;;;5018433;28;20198;-87
2021/12/19 11:57:43;;;;;;;7.87;5.43;;;8.30;99.90;;;;;;5024288;28;20182;-87
2021/12/19 12:00:38;;;;;;;9.97;5.10;;;8.30;99.90;;;;;;5029783;28;20174;-84
2021/12/19 12:03:21;;;;;;;7.83;4.80;;;8.40;99.90;;;;;;5033861;28;20254;-85
2021/12/19 12:05:53;;;;;;;7.17;5.20;;;8.50;99.90;;;;;;5035233;28;20174;-86
2021/12/19 12:08:21;;;;;;;9.53;5.03;;;8.50;99.90;;;;;;5035201;28;20182;-86
2021/12/19 12:10:55;;;;;;;8.10;4.90;;;8.60;99.90;;;;;;5034701;28;20197;-86
2021/12/19 12:13:41;;;;;;;7.20;4.63;;;8.30;99.90;;;;;;5035478;28;20170;-84
2021/12/19 12:16:18;;;;;;;10.43;5.17;;;8.30;99.90;;;;;;5017349;28;20184;-83
2021/12/19 12:18:45;;;;;;;9.30;5.60;;;8.40;99.90;;;;;;5030670;28;20313;-83
2021/12/19 12:21:26;;;;;;;6.93;4.43;;;8.50;99.90;;;;;;5030012;28;20181;-84
2021/12/19 12:24:02;;;;;;;7.20;4.83;;;8.40;99.90;;;;;;5029318;28;20204;-85
2021/12/19 12:26:45;;;;;;;6.90;4.93;;;8.10;99.90;;;;;;5025112;28;20183;-85
2021/12/19 12:29:37;;;;;;;8.10;5.00;;;8.10;99.90;;;;;;5027218;28;20171;-91
2021/12/19 12:32:34;;;;;;;8.70;5.37;;;8.30;99.90;;;;;;5029739;28;20210;-88
2021/12/19 12:35:00;;;;;;;9.57;5.87;;;8.20;99.90;;;;;;5028584;28;20170;-92
2021/12/19 12:37:58;;;;;;;9.20;5.77;;;8.40;99.90;;;;;;5026822;28;20208;-88
2021/12/19 12:44:00;;;;;;;8.20;5.77;;;8.30;99.90;;;;;;5010989;28;20182;-85
2021/12/19 12:46:52;;;;;;;8.03;5.07;;;8.20;99.90;;;;;;5027617;28;20182;-86
2021/12/19 12:49:52;;;;;;;9.33;6.07;;;8.00;99.90;;;;;;5023189;28;20186;-85
2021/12/19 12:53:13;;;;;;;9.07;5.70;;;8.10;99.90;;;;;;5029854;28;20209;-84
2021/12/19 12:59:06;;;;;;;9.10;5.80;;;8.20;99.90;;;;;;5038337;28;20238;-86
2021/12/19 13:01:43;;;;;;;11.20;6.30;;;8.30;99.90;;;;;;5034501;28;20167;-87
2021/12/19 13:04:25;;;;;;;9.27;6.33;;;8.10;99.90;;;;;;5038043;28;20173;-87
2021/12/19 13:07:24;;;;;;;11.93;6.23;;;8.10;99.90;;;;;;5037020;28;20169;-84
2021/12/19 13:09:53;;;;;;;7.83;5.90;;;8.10;99.90;;;;;;5035961;28;20189;-88
2021/12/19 13:12:22;;;;;;;10.10;6.87;;;8.10;99.90;;;;;;5036375;28;20241;-85
2021/12/19 13:14:52;;;;;;;8.53;6.20;;;8.10;99.90;;;;;;5036423;28;20175;-86
2021/12/19 13:17:21;;;;;;;11.10;9.13;;;8.00;99.90;;;;;;5033769;28;20254;-90
2021/12/19 13:20:13;;;;;;;10.80;6.87;;;8.00;99.90;;;;;;5023830;28;20273;-93
2021/12/19 13:22:48;;;;;;;11.00;6.83;;;7.90;99.90;;;;;;5019524;28;20190;-88
2021/12/19 13:25:38;;;;;;;8.97;6.63;;;8.00;99.90;;;;;;5022386;28;20166;-86
2021/12/19 13:28:06;;;;;;;6.70;5.50;;;8.00;99.90;;;;;;5026328;28;20155;-88
2021/12/19 13:30:41;;;;;;;8.43;6.63;;;7.80;99.90;;;;;;5027863;28;20181;-85
2021/12/19 13:33:14;;;;;;;9.33;6.87;;;7.90;99.90;;;;;;5031386;28;20216;-87
2021/12/19 13:35:45;;;;;;;11.40;9.37;;;8.00;99.90;;;;;;5036788;28;20217;-88
2021/12/19 13:38:31;;;;;;;9.47;7.80;;;8.10;99.90;;;;;;5035608;28;20159;-86
2021/12/19 13:41:02;;;;;;;10.20;7.50;;;8.10;99.90;;;;;;5025615;28;20222;-94
2021/12/19 13:43:35;;;;;;;9.63;6.93;;;8.10;99.90;;;;;;5020982;28;20197;-91
2021/12/19 13:46:07;;;;;;;9.77;6.33;;;8.10;99.90;;;;;;5021292;28;20170;-91
2021/12/19 13:48:54;;;;;;;7.27;6.10;;;8.40;99.90;;;;;;5022654;28;20608;-86
2021/12/19 13:51:25;;;;;;;7.23;5.83;;;8.10;99.90;;;;;;5022844;28;20265;-92
2021/12/19 13:53:55;;;;;;;9.40;6.47;;;8.20;99.90;;;;;;5022173;28;20313;-86
2021/12/19 13:56:33;;;;;;;6.67;5.63;;;8.20;99.90;;;;;;5021315;28;20549;-84
2021/12/19 13:59:21;;;;;;;31.97;19.07;;;8.20;99.90;;;;;;5019495;28;20181;-90
2021/12/19 14:01:48;;;;;;;65.03;34.33;;;8.10;99.90;;;;;;5020769;28;20607;-84
2021/12/19 14:04:25;;;;;;;72.40;39.67;;;8.30;99.90;;;;;;5019723;28;20312;-85
2021/12/19 14:06:59;;;;;;;11.10;7.70;;;8.30;99.90;;;;;;5020022;28;20232;-86
2021/12/19 14:09:26;;;;;;;14.63;11.17;;;8.40;99.90;;;;;;5020231;28;20276;-86
2021/12/19 14:11:58;;;;;;;8.93;6.77;;;8.30;99.90;;;;;;5020622;28;20217;-88
2021/12/19 14:14:30;;;;;;;6.37;4.70;;;8.50;99.90;;;;;;5023403;28;20174;-92